Time;durP1;ratioP1;P1;durP2;ratioP2;P2;SDS_P1;SDS_P2;PMS_P1;PMS_P2;Temp;Humidity;BMP_temperature;BMP_pressure;BME280_temperature;BME280_humidity;BME280_pressure;Samples;Min_cycle;Max_cycle;Signal;HPM_P1;HPM_P2
2024/02/26 00:01:50;;;;;;;26.58;17.13;;;256.20;2252.80;;;;;;4840046;29;20541;-71
2024/02/26 00:04:16;;;;;;;39.97;23.00;;;;;;;;;;4840526;29;20125;-68
2024/02/26 00:06:42;;;;;;;44.90;26.83;;;;;;;;;;4848816;29;20086;-70
2024/02/26 00:09:09;;;;;;;25.10;17.17;;;;;;;;;;4841454;29;20429;-70
2024/02/26 00:11:38;;;;;;;38.13;21.73;;;;;;;;;;4840587;29;20034;-70
2024/02/26 00:14:04;;;;;;;44.88;27.95;;;;;;;;;;4832453;29;20113;-69
2024/02/26 00:16:30;;;;;;;46.97;31.33;;;;;;;;;;4838086;29;20058;-68
2024/02/26 00:18:56;;;;;;;41.92;24.25;;;;;;;;;;4841050;29;20496;-70
2024/02/26 00:21:22;;;;;;;78.97;44.20;;;;;;;;;;4829406;29;20038;-71
2024/02/26 00:23:52;;;;;;;27.83;19.00;;;;;;;;;;4841493;29;20038;-70
2024/02/26 00:26:19;;;;;;;70.82;39.75;;;;;;;;;;4841318;29;20147;-69
2024/02/26 00:28:45;;;;;;;54.88;29.98;;;;;;;;;;4841310;29;20383;-70
2024/02/26 00:31:11;;;;;;;35.80;22.90;;;;;;;;;;4840815;29;20026;-70
2024/02/26 00:33:38;;;;;;;51.53;32.33;;;;;;;;;;4841262;29;20105;-70
2024/02/26 00:36:04;;;;;;;47.85;29.15;;;;;;;;;;4841080;29;20380;-69
2024/02/26 00:38:30;;;;;;;29.77;20.00;;;;;;;;;;4841175;29;20443;-70
2024/02/26 00:40:56;;;;;;;35.88;23.85;;;;;;;;;;4841006;29;20040;-69
2024/02/26 00:43:22;;;;;;;46.60;26.55;;;;;;;;;;4840868;29;20042;-70
2024/02/26 00:45:48;;;;;;;53.65;28.50;;;;;;;;;;4840854;29;20086;-69
2024/02/26 00:48:14;;;;;;;39.90;21.05;;;;;;;;;;4840994;29;20030;-69
2024/02/26 00:50:41;;;;;;;25.67;16.27;;;;;;;;;;4840754;29;20526;-70
2024/02/26 00:53:08;;;;;;;23.08;15.32;;;;;;;;;;4841187;29;20052;-70
2024/02/26 00:55:34;;;;;;;24.10;15.52;;;;;;;;;;4840498;29;20465;-69
2024/02/26 00:58:00;;;;;;;25.33;17.95;;;;;;;;;;4840867;29;20038;-69
2024/02/26 01:00:26;;;;;;;43.47;28.33;;;;;;;;;;4840169;29;20029;-70
2024/02/26 01:02:52;;;;;;;23.10;14.40;;;;;;;;;;4848897;29;20125;-70
2024/02/26 01:05:19;;;;;;;25.83;17.75;;;;;;;;;;4844037;29;20030;-69
2024/02/26 01:07:45;;;;;;;48.13;28.63;;;;;;;;;;4840764;29;20030;-70
2024/02/26 01:10:11;;;;;;;41.65;30.20;;;;;;;;;;4840513;29;20033;-69
2024/02/26 01:12:37;;;;;;;25.25;13.85;;;;;;;;;;4840582;29;20370;-70
2024/02/26 01:15:03;;;;;;;18.23;12.73;;;;;;;;;;4847844;29;20026;-69
2024/02/26 01:17:29;;;;;;;25.55;17.40;;;;;;;;;;4840444;29;20037;-69
2024/02/26 01:19:55;;;;;;;56.30;36.22;;;;;;;;;;4840292;29;20074;-70
2024/02/26 01:22:22;;;;;;;24.42;17.38;;;;;;;;;;4840102;29;20516;-70
2024/02/26 01:24:48;;;;;;;31.70;20.50;;;;;;;;;;4840574;29;20041;-70
2024/02/26 01:27:15;;;;;;;19.55;14.07;;;;;;;;;;4840259;29;20032;-70
2024/02/26 01:29:41;;;;;;;28.65;18.58;;;;;;;;;;4840194;29;20030;-70
2024/02/26 01:32:07;;;;;;;22.00;12.15;;;;;;;;;;4840319;29;20041;-69
2024/02/26 01:34:34;;;;;;;23.77;13.60;;;;;;;;;;4840103;29;20018;-69
2024/02/26 01:37:00;;;;;;;19.20;13.18;;;;;;;;;;4840615;29;20388;-70
2024/02/26 01:39:28;;;;;;;17.17;10.48;;;;;;;;;;4839982;29;20022;-78
2024/02/26 01:41:55;;;;;;;17.20;11.43;;;;;;;;;;4840052;29;20604;-70
2024/02/26 01:44:21;;;;;;;24.23;14.95;;;230.60;2252.80;;;;;;4839775;29;20061;-70
2024/02/26 01:46:48;;;;;;;57.30;30.88;;;230.40;2252.80;;;;;;4840002;29;20549;-72
2024/02/26 01:49:15;;;;;;;25.50;16.15;;;;;;;;;;4839620;29;20034;-69
2024/02/26 01:51:43;;;;;;;27.67;14.32;;;231.00;2252.80;;;;;;4840024;29;20046;-70
2024/02/26 01:54:09;;;;;;;53.22;30.38;;;230.90;2252.80;;;;;;4840067;29;20061;-70
2024/02/26 01:56:37;;;;;;;56.95;33.65;;;230.90;2252.80;;;;;;4840082;29;20022;-70
2024/02/26 01:59:05;;;;;;;41.55;25.17;;;230.90;2252.80;;;;;;4839527;29;20462;-69
2024/02/26 02:01:33;;;;;;;69.85;43.20;;;230.80;2252.80;;;;;;4839344;29;20033;-73
2024/02/26 02:04:00;;;;;;;34.85;22.63;;;231.00;2252.80;;;;;;4839672;29;20033;-69
2024/02/26 02:06:30;;;;;;;66.97;39.75;;;230.90;2252.80;;;;;;4839533;29;20078;-79
2024/02/26 02:08:56;;;;;;;40.28;29.15;;;230.80;2252.80;;;;;;4839775;29;20033;-70
2024/02/26 02:11:22;;;;;;;21.98;13.13;;;230.90;2252.80;;;;;;4839839;29;20498;-70
2024/02/26 02:13:48;;;;;;;62.95;35.95;;;230.90;2252.80;;;;;;4839549;29;20062;-70
2024/02/26 02:16:14;;;;;;;49.58;36.55;;;230.90;2252.80;;;;;;4839299;29;20444;-74
2024/02/26 02:18:40;;;;;;;22.27;16.40;;;231.00;2252.80;;;;;;4838373;29;20418;-70
2024/02/26 02:21:06;;;;;;;22.20;16.58;;;231.00;2252.80;;;;;;4839544;29;20057;-71
2024/02/26 02:23:31;;;;;;;71.20;40.50;;;231.00;2252.80;;;;;;4822361;29;20045;-70
2024/02/26 02:25:58;;;;;;;42.80;29.02;;;;;;;;;;4839560;29;20124;-70
2024/02/26 02:28:26;;;;;;;22.42;15.73;;;;;;;;;;4839112;29;20128;-69
2024/02/26 02:30:52;;;;;;;24.08;14.98;;;;;;;;;;4839195;29;20042;-69
2024/02/26 02:33:18;;;;;;;69.88;37.92;;;;;;;;;;4838892;29;20026;-70
2024/02/26 02:35:44;;;;;;;77.35;43.33;;;;;;;;;;4850423;29;20041;-70
2024/02/26 02:38:20;;;;;;;42.47;21.30;;;;;;;;;;5106801;27;20397;-70
2024/02/26 02:40:46;;;;;;;109.97;53.97;;;256.00;2252.80;;;;;;5106396;28;20102;-70
2024/02/26 02:43:11;;;;;;;82.13;43.55;;;231.20;2252.80;;;;;;5106113;28;20102;-72
2024/02/26 02:45:37;;;;;;;80.28;40.90;;;231.20;2252.80;;;;;;5106045;28;20070;-70
2024/02/26 02:48:03;;;;;;;18.55;11.95;;;256.00;2252.80;;;;;;5106414;28;20073;-70
2024/02/26 02:50:29;;;;;;;18.60;11.73;;;231.10;2252.80;;;;;;5106325;28;20032;-70
2024/02/26 02:52:55;;;;;;;109.38;51.15;;;231.00;2252.80;;;;;;5106757;28;20350;-71
2024/02/26 02:55:21;;;;;;;17.48;11.80;;;231.00;2252.80;;;;;;5106050;28;20034;-70
2024/02/26 02:57:47;;;;;;;21.40;13.32;;;231.00;2252.80;;;;;;5106368;28;20110;-69
2024/02/26 03:00:13;;;;;;;28.80;17.33;;;231.10;2252.80;;;;;;5104040;28;20537;-70
2024/02/26 03:02:38;;;;;;;157.10;84.22;;;231.10;2252.80;;;;;;5104736;28;20027;-70
2024/02/26 03:05:05;;;;;;;58.45;32.35;;;231.20;2252.80;;;;;;5106091;28;20016;-70
2024/02/26 03:07:31;;;;;;;46.90;25.42;;;256.00;2252.80;;;;;;5106095;28;20481;-70
2024/02/26 03:09:57;;;;;;;32.45;19.45;;;256.20;2252.80;;;;;;5105501;28;20055;-70
2024/02/26 03:12:23;;;;;;;75.38;45.00;;;256.10;2252.80;;;;;;5105689;28;20039;-70
2024/02/26 03:14:48;;;;;;;68.07;39.47;;;256.10;2252.80;;;;;;5105333;28;20062;-70
2024/02/26 03:17:14;;;;;;;37.33;22.98;;;256.00;2252.80;;;;;;5105895;28;20047;-70
2024/02/26 03:19:40;;;;;;;22.13;14.38;;;256.00;2252.80;;;;;;5105289;28;20020;-70
2024/02/26 03:22:06;;;;;;;14.35;10.68;;;256.10;2252.80;;;;;;5106252;28;20065;-70
2024/02/26 03:24:31;;;;;;;20.73;12.13;;;256.10;2252.80;;;;;;5105742;28;20095;-70
2024/02/26 03:26:57;;;;;;;36.58;24.13;;;256.00;2252.80;;;;;;5105866;28;20031;-70
2024/02/26 03:29:23;;;;;;;32.25;17.90;;;231.30;2252.80;;;;;;5105401;28;20028;-70
2024/02/26 03:31:49;;;;;;;27.25;16.25;;;231.30;2252.80;;;;;;5105546;28;20020;-71
2024/02/26 03:34:15;;;;;;;20.52;13.52;;;256.00;2252.80;;;;;;5105740;28;20474;-70
2024/02/26 03:36:43;;;;;;;18.83;12.70;;;256.00;2252.80;;;;;;5105035;28;20551;-78
2024/02/26 03:39:09;;;;;;;18.30;12.95;;;231.30;2252.80;;;;;;5105102;28;20032;-69
2024/02/26 03:41:35;;;;;;;15.30;10.32;;;231.30;2252.80;;;;;;5105546;28;20012;-70
2024/02/26 03:44:01;;;;;;;19.90;11.38;;;231.10;2252.80;;;;;;5105255;28;20119;-70
2024/02/26 03:46:27;;;;;;;17.23;10.55;;;231.20;2252.80;;;;;;5105655;28;20077;-70
2024/02/26 03:48:53;;;;;;;16.42;9.73;;;231.20;2252.80;;;;;;5095473;28;20031;-70
2024/02/26 03:51:19;;;;;;;45.25;34.92;;;231.30;2252.80;;;;;;5091668;28;20055;-70
2024/02/26 03:53:45;;;;;;;20.58;14.15;;;231.30;2252.80;;;;;;5091867;28;20052;-70
2024/02/26 03:56:13;;;;;;;19.98;13.73;;;231.20;2252.80;;;;;;5091508;28;20725;-70
2024/02/26 03:58:39;;;;;;;34.10;25.75;;;231.30;2252.80;;;;;;5091378;28;20819;-72
2024/02/26 04:01:08;;;;;;;54.85;29.75;;;231.30;2252.80;;;;;;5091745;28;20012;-75
2024/02/26 04:03:34;;;;;;;23.83;16.08;;;231.30;2252.80;;;;;;5089856;28;20078;-71
2024/02/26 04:06:00;;;;;;;40.90;26.50;;;256.00;2252.80;;;;;;5091172;28;20012;-71
2024/02/26 04:08:26;;;;;;;31.92;19.20;;;256.00;2252.80;;;;;;5091347;28;20161;-70
2024/02/26 04:10:52;;;;;;;25.73;15.35;;;256.00;2252.80;;;;;;5089178;28;20051;-72
2024/02/26 04:13:18;;;;;;;21.58;13.60;;;256.10;2252.80;;;;;;5091252;28;20049;-70
2024/02/26 04:15:44;;;;;;;21.75;14.30;;;256.20;2252.80;;;;;;5091125;28;20020;-70
2024/02/26 04:18:09;;;;;;;21.98;14.85;;;256.20;2252.80;;;;;;5090879;28;20038;-71
2024/02/26 04:20:35;;;;;;;25.55;19.13;;;256.20;2252.80;;;;;;5089990;28;20482;-71
2024/02/26 04:23:02;;;;;;;25.73;16.67;;;256.30;2252.80;;;;;;5090708;28;20111;-71
2024/02/26 04:25:28;;;;;;;31.13;21.08;;;256.20;2252.80;;;;;;5087768;28;20429;-70
2024/02/26 04:27:54;;;;;;;32.85;23.13;;;256.10;2252.80;;;;;;5090957;28;20028;-69
2024/02/26 04:30:20;;;;;;;29.38;19.13;;;256.10;2252.80;;;;;;5091046;28;20016;-70
2024/02/26 04:32:45;;;;;;;37.88;24.70;;;256.20;2252.80;;;;;;5091084;28;20067;-69
2024/02/26 04:35:11;;;;;;;20.65;14.77;;;231.30;2252.80;;;;;;5090828;28;20020;-69
2024/02/26 04:37:37;;;;;;;27.75;15.02;;;231.20;2252.80;;;;;;5089964;28;20131;-70
2024/02/26 04:40:04;;;;;;;18.70;14.23;;;230.90;2252.80;;;;;;5090653;28;20397;-70
2024/02/26 04:42:30;;;;;;;25.65;15.65;;;230.70;2252.80;;;;;;5088313;28;20032;-70
2024/02/26 04:44:56;;;;;;;18.42;12.18;;;230.60;2252.80;;;;;;5090577;28;20034;-71
2024/02/26 04:47:22;;;;;;;17.85;12.60;;;230.70;2252.80;;;;;;5090425;28;20070;-70
2024/02/26 04:49:51;;;;;;;16.83;13.32;;;230.80;2252.80;;;;;;5090808;28;20020;-72
2024/02/26 04:52:18;;;;;;;44.33;22.10;;;230.90;2252.80;;;;;;5088941;28;20029;-70
2024/02/26 04:54:44;;;;;;;34.03;18.02;;;231.10;2252.80;;;;;;5090677;28;20035;-69
2024/02/26 04:57:10;;;;;;;18.00;12.50;;;231.20;2252.80;;;;;;5090281;28;20028;-70
2024/02/26 04:59:36;;;;;;;20.05;13.50;;;231.20;2252.80;;;;;;5089383;28;20370;-70
2024/02/26 05:02:01;;;;;;;18.35;11.10;;;231.20;2252.80;;;;;;5089240;28;20484;-70
2024/02/26 05:04:27;;;;;;;16.98;11.20;;;231.10;2252.80;;;;;;5090697;28;20024;-69
2024/02/26 05:06:53;;;;;;;19.30;14.05;;;231.10;2252.80;;;;;;5090076;28;20043;-79
2024/02/26 05:09:19;;;;;;;24.67;17.23;;;231.00;2252.80;;;;;;5090374;28;20027;-78
2024/02/26 05:11:45;;;;;;;37.40;22.88;;;231.00;2252.80;;;;;;5089782;28;20024;-74
2024/02/26 05:14:11;;;;;;;60.20;35.17;;;231.20;2252.80;;;;;;5089927;28;20389;-70
2024/02/26 05:16:37;;;;;;;53.08;34.33;;;231.10;2252.80;;;;;;5089900;28;20082;-70
2024/02/26 05:19:03;;;;;;;60.70;39.35;;;231.10;2252.80;;;;;;5090052;28;20027;-69
2024/02/26 05:21:29;;;;;;;48.22;32.17;;;231.20;2252.80;;;;;;5089641;28;20024;-69
2024/02/26 05:23:54;;;;;;;39.13;25.88;;;231.20;2252.80;;;;;;5089942;28;20370;-69
2024/02/26 05:26:23;;;;;;;366.25;217.65;;;231.20;2252.80;;;;;;5089413;28;20028;-69
2024/02/26 05:28:50;;;;;;;49.60;30.88;;;231.20;2252.80;;;;;;5089703;28;20052;-70
2024/02/26 05:31:17;;;;;;;27.73;17.88;;;231.30;2252.80;;;;;;5089639;28;20020;-71
2024/02/26 05:33:43;;;;;;;26.33;16.98;;;256.20;2252.80;;;;;;5089370;28;20424;-69
2024/02/26 05:36:09;;;;;;;40.72;23.55;;;256.30;2252.80;;;;;;5089608;28;20036;-70
2024/02/26 05:38:35;;;;;;;36.33;22.73;;;256.50;2252.80;;;;;;5089826;28;20036;-69
2024/02/26 05:41:01;;;;;;;44.65;29.83;;;256.70;2252.80;;;;;;5089173;28;20029;-70
2024/02/26 05:43:28;;;;;;;58.22;38.05;;;256.40;2252.80;;;;;;5080816;28;20031;-70
2024/02/26 05:45:54;;;;;;;73.13;48.45;;;256.20;2252.80;;;;;;5076002;28;20028;-70
2024/02/26 05:48:20;;;;;;;62.50;40.13;;;231.20;2252.80;;;;;;5089628;28;20020;-70
2024/02/26 05:50:46;;;;;;;68.18;43.40;;;231.30;2252.80;;;;;;5089287;28;20024;-70
2024/02/26 05:53:12;;;;;;;70.80;46.72;;;256.00;2252.80;;;;;;5081236;28;20028;-70
2024/02/26 05:55:38;;;;;;;67.65;43.35;;;256.00;2252.80;;;;;;5082106;28;20028;-70
2024/02/26 05:58:04;;;;;;;70.78;44.42;;;256.10;2252.80;;;;;;5089261;28;20067;-70
2024/02/26 06:00:30;;;;;;;76.88;44.40;;;256.30;2252.80;;;;;;5089136;28;20021;-71
2024/02/26 06:02:56;;;;;;;67.82;45.65;;;256.00;2252.80;;;;;;5088687;28;20063;-70
2024/02/26 06:05:22;;;;;;;612.00;433.10;;;256.10;2252.80;;;;;;5089322;28;20051;-74
2024/02/26 06:07:47;;;;;;;58.75;41.25;;;256.20;2252.80;;;;;;5088822;28;20036;-70
2024/02/26 06:10:13;;;;;;;61.65;33.78;;;256.30;2252.80;;;;;;5088546;28;20032;-77
2024/02/26 06:12:40;;;;;;;52.58;36.88;;;256.40;2252.80;;;;;;5088277;28;20054;-70
2024/02/26 06:15:07;;;;;;;44.63;30.92;;;256.30;2252.80;;;;;;5089081;28;20024;-70
2024/02/26 06:17:33;;;;;;;39.42;29.42;;;256.40;2252.80;;;;;;5088465;28;20078;-73
2024/02/26 06:19:59;;;;;;;27.92;19.42;;;256.40;2252.80;;;;;;5089169;28;20044;-78
2024/02/26 06:22:26;;;;;;;34.17;19.88;;;256.50;2252.80;;;;;;5089040;28;20027;-71
2024/02/26 06:24:51;;;;;;;33.10;23.73;;;256.70;2252.80;;;;;;5088866;28;20098;-70
2024/02/26 06:27:17;;;;;;;89.88;63.22;;;256.80;2252.80;;;;;;5088257;28;20063;-69
2024/02/26 06:29:43;;;;;;;93.72;57.58;;;256.50;2252.80;;;;;;5088710;28;20024;-76
2024/02/26 06:32:09;;;;;;;92.05;58.60;;;256.70;2252.80;;;;;;5088854;28;20113;-70
2024/02/26 06:34:35;;;;;;;115.75;66.88;;;256.70;2252.80;;;;;;5089112;28;20027;-71
2024/02/26 06:37:01;;;;;;;68.72;46.33;;;256.90;2252.80;;;;;;5077742;28;20040;-70
2024/02/26 06:39:27;;;;;;;80.43;53.72;;;281.60;2278.40;;;;;;5089189;28;20052;-70
2024/02/26 06:41:59;;;;;;;106.30;68.07;;;;;;;;;;5088466;28;20378;-70
2024/02/26 06:44:26;;;;;;;72.55;51.38;;;281.90;2278.40;;;;;;5088359;28;20024;-81
2024/02/26 06:46:52;;;;;;;50.80;35.53;;;281.90;2278.40;;;;;;5086672;28;20489;-76
2024/02/26 06:49:18;;;;;;;65.70;44.70;;;282.30;2278.40;;;;;;5088068;28;20036;-74
2024/02/26 06:51:43;;;;;;;125.97;79.55;;;282.30;2278.40;;;;;;5078607;28;20119;-76
2024/02/26 06:54:09;;;;;;;358.65;232.90;;;282.40;2278.40;;;;;;5085661;28;20371;-77
2024/02/26 06:56:35;;;;;;;156.40;102.88;;;307.20;2304.00;;;;;;5088760;28;20058;-76
2024/02/26 06:59:01;;;;;;;60.47;41.63;;;307.50;2304.00;;;;;;5088177;28;20070;-75
2024/02/26 07:01:26;;;;;;;63.72;44.35;;;307.60;2304.00;;;;;;5088963;28;20020;-75
2024/02/26 07:03:52;;;;;;;49.80;33.00;;;307.50;2304.00;;;;;;5075395;28;20086;-75
2024/02/26 07:06:18;;;;;;;43.55;36.05;;;307.30;2304.00;;;;;;5084216;28;20032;-75
2024/02/26 07:08:44;;;;;;;98.90;72.78;;;307.30;2304.00;;;;;;5088640;28;20373;-79
2024/02/26 07:11:11;;;;;;;98.80;76.72;;;282.40;2278.40;;;;;;5087971;28;20016;-75
2024/02/26 07:13:36;;;;;;;104.50;76.15;;;282.20;2278.40;;;;;;5088563;28;20020;-81
2024/02/26 07:16:03;;;;;;;113.22;85.53;;;282.50;2278.40;;;;;;5088204;28;20351;-75
2024/02/26 07:18:28;;;;;;;113.18;85.22;;;307.20;2304.00;;;;;;5088601;28;20725;-79
2024/02/26 07:20:55;;;;;;;108.45;82.45;;;307.40;2304.00;;;;;;5083338;28;20036;-75
2024/02/26 07:23:21;;;;;;;114.32;80.90;;;307.60;2304.00;;;;;;5080290;28;20020;-76
2024/02/26 07:25:48;;;;;;;104.55;79.25;;;307.70;2304.00;;;;;;5090554;28;20438;-75
2024/02/26 07:28:15;;;;;;;104.80;78.22;;;;;;;;;;5092560;28;20016;-75
2024/02/26 07:30:40;;;;;;;171.98;132.40;;;332.80;2329.60;;;;;;5091695;28;20398;-75
2024/02/26 07:33:07;;;;;;;88.10;70.45;;;308.10;2304.00;;;;;;5091821;28;20024;-75
2024/02/26 07:35:33;;;;;;;64.03;45.17;;;332.90;2329.60;;;;;;5089033;28;20385;-75
2024/02/26 07:37:59;;;;;;;52.03;38.63;;;333.10;2329.60;;;;;;5091066;28;20047;-74
2024/02/26 07:40:25;;;;;;;71.35;50.65;;;333.00;2329.60;;;;;;5086471;28;20078;-75
2024/02/26 07:42:51;;;;;;;66.47;45.95;;;333.10;2329.60;;;;;;5083846;28;20103;-76
2024/02/26 07:45:19;;;;;;;87.65;65.75;;;333.30;2329.60;;;;;;5083018;28;20112;-75
2024/02/26 07:47:46;;;;;;;54.90;40.05;;;333.40;2329.60;;;;;;5084323;28;20509;-75
2024/02/26 07:50:12;;;;;;;50.13;33.30;;;333.70;2329.60;;;;;;5083671;28;20470;-75
2024/02/26 07:52:38;;;;;;;43.83;30.88;;;358.50;2329.60;;;;;;5089358;28;20095;-75
2024/02/26 07:55:04;;;;;;;49.20;31.17;;;358.80;2329.60;;;;;;5090219;28;20108;-84
2024/02/26 07:57:31;;;;;;;50.65;30.58;;;358.80;2329.60;;;;;;5075447;28;20087;-76
2024/02/26 07:59:57;;;;;;;53.30;33.60;;;359.00;2329.60;;;;;;5074555;28;20033;-75
2024/02/26 08:02:22;;;;;;;45.05;30.42;;;359.10;2329.60;;;;;;5075810;28;20534;-83
2024/02/26 08:04:48;;;;;;;112.63;89.22;;;;;;;;;;5077207;28;20059;-76
2024/02/26 08:07:15;;;;;;;126.55;95.70;;;;;;;;;;5076200;28;20035;-76
2024/02/26 08:09:41;;;;;;;215.10;137.70;;;;;;;;;;5086162;28;20534;-77
2024/02/26 08:12:07;;;;;;;125.65;86.22;;;410.00;2355.20;;;;;;5091446;28;20039;-82
2024/02/26 08:14:33;;;;;;;191.40;140.20;;;410.20;2355.20;;;;;;5078670;28;20394;-83
2024/02/26 08:16:59;;;;;;;114.63;81.90;;;435.20;2355.20;;;;;;5084281;28;20028;-83
2024/02/26 08:19:26;;;;;;;204.40;134.60;;;435.70;2355.20;;;;;;5086277;28;20028;-77
2024/02/26 08:21:51;;;;;;;113.47;85.47;;;486.40;2329.60;;;;;;5086995;28;20027;-83
2024/02/26 08:24:17;;;;;;;60.33;48.28;;;537.80;2176.00;;;;;;5091150;28;20016;-82
2024/02/26 08:26:43;;;;;;;56.47;47.40;;;589.50;1920.00;;;;;;5090328;28;20072;-82
2024/02/26 08:29:09;;;;;;;68.43;48.60;;;;;;;;;;5090371;28;20385;-85
2024/02/26 08:31:37;;;;;;;211.40;137.55;;;;;;;;;;5091129;28;20024;-82
2024/02/26 08:34:03;;;;;;;52.38;44.55;;;589.70;1868.80;;;;;;5086512;28;20193;-79
2024/02/26 08:36:31;;;;;;;101.68;83.97;;;563.50;1971.20;;;;;;5090592;28;20065;-81
2024/02/26 08:38:57;;;;;;;69.82;60.45;;;;;;;;;;5089172;28;20765;-82
2024/02/26 08:41:23;;;;;;;72.22;59.75;;;487.10;2073.60;;;;;;5081176;28;20095;-81
2024/02/26 08:43:49;;;;;;;72.50;61.35;;;487.00;2099.20;;;;;;5080211;28;20119;-81
2024/02/26 08:46:15;;;;;;;78.50;60.97;;;;;;;;;;5073905;28;20394;-76
2024/02/26 08:48:41;;;;;;;84.70;68.38;;;;;;;;;;5078061;28;20103;-75
2024/02/26 08:51:07;;;;;;;75.78;62.65;;;537.60;2099.20;;;;;;5073990;28;20085;-76
2024/02/26 08:53:34;;;;;;;80.85;63.08;;;537.70;2073.60;;;;;;5077561;28;20032;-75
2024/02/26 08:56:00;;;;;;;76.35;59.58;;;538.00;2022.40;;;;;;5077340;28;20020;-74
2024/02/26 08:58:27;;;;;;;76.32;56.30;;;537.80;2073.60;;;;;;5080486;28;20567;-81
2024/02/26 09:00:53;;;;;;;71.85;57.25;;;;;;;;;;5081331;28;20478;-82
2024/02/26 09:03:19;;;;;;;74.07;62.10;;;563.60;1996.80;;;;;;5084590;28;20059;-80
2024/02/26 09:05:45;;;;;;;69.75;60.65;;;589.60;1920.00;;;;;;5080975;28;20083;-79
2024/02/26 09:08:10;;;;;;;72.45;58.03;;;614.80;1843.20;;;;;;5066745;28;20051;-76
2024/02/26 09:10:36;;;;;;;57.35;50.25;;;615.30;1817.60;;;;;;5080305;28;20489;-82
2024/02/26 09:13:02;;;;;;;53.60;47.88;;;640.40;1740.80;;;;;;5076257;28;20024;-81
2024/02/26 09:15:28;;;;;;;54.38;46.53;;;665.90;1740.80;;;;;;5089621;28;20366;-80
2024/02/26 09:17:54;;;;;;;51.88;42.00;;;666.40;1664.00;;;;;;5089306;28;20533;-76
2024/02/26 09:20:23;;;;;;;44.95;40.35;;;640.70;1689.60;;;;;;5086262;28;20085;-82
2024/02/26 09:22:50;;;;;;;43.90;39.30;;;615.10;1740.80;;;;;;5085616;28;20023;-81
2024/02/26 09:25:16;;;;;;;45.33;37.15;;;614.40;1792.00;;;;;;5087918;28;20030;-80
2024/02/26 09:27:46;;;;;;;41.00;33.92;;;615.20;1766.40;;;;;;5085479;28;20533;-78
2024/02/26 09:30:13;;;;;;;37.33;28.73;;;640.10;1715.20;;;;;;5078525;28;20032;-81
2024/02/26 09:32:39;;;;;;;55.47;44.60;;;615.30;1715.20;;;;;;5072319;28;20020;-74
2024/02/26 09:35:06;;;;;;;38.03;32.13;;;615.00;1740.80;;;;;;5086276;28;20450;-74
2024/02/26 09:37:33;;;;;;;37.53;33.50;;;589.30;1792.00;;;;;;5083094;28;20048;-74
2024/02/26 09:39:59;;;;;;;18.90;16.83;;;588.80;1843.20;;;;;;5082107;28;20023;-78
2024/02/26 09:42:26;;;;;;;34.60;26.95;;;563.40;1894.40;;;;;;5069827;28;20025;-78
2024/02/26 09:44:57;;;;;;;22.90;19.02;;;563.70;1894.40;;;;;;5070274;28;20106;-77
2024/02/26 09:47:27;;;;;;;26.73;18.95;;;563.60;1894.40;;;;;;5069869;28;20045;-81
2024/02/26 09:49:53;;;;;;;24.15;19.35;;;;;;;;;;5079956;28;20202;-78
2024/02/26 09:52:20;;;;;;;23.25;17.67;;;538.00;1920.00;;;;;;5089354;28;20114;-78
2024/02/26 09:54:49;;;;;;;48.55;32.33;;;;;;;;;;5089653;28;20028;-81
2024/02/26 09:57:16;;;;;;;26.42;15.98;;;;;;;;;;5085692;28;20047;-79
2024/02/26 09:59:43;;;;;;;24.83;18.88;;;537.80;1920.00;;;;;;5074911;28;20016;-79
2024/02/26 10:02:12;;;;;;;21.10;15.07;;;537.60;1945.60;;;;;;5085753;28;20073;-80
2024/02/26 10:04:39;;;;;;;33.10;23.55;;;512.90;1920.00;;;;;;5089142;28;20487;-77
2024/02/26 10:07:12;;;;;;;24.67;17.95;;;512.90;1945.60;;;;;;5088950;28;20103;-77
2024/02/26 10:09:38;;;;;;;23.45;15.68;;;512.50;1971.20;;;;;;5080955;28;20032;-77
2024/02/26 10:12:05;;;;;;;19.13;13.10;;;512.50;1971.20;;;;;;5077466;28;20052;-79
2024/02/26 10:14:31;;;;;;;21.42;15.65;;;512.20;1971.20;;;;;;5080387;28;20166;-75
2024/02/26 10:16:58;;;;;;;25.55;16.15;;;487.30;1996.80;;;;;;5068879;28;20471;-76
2024/02/26 10:19:29;;;;;;;21.65;14.02;;;487.20;2048.00;;;;;;5070003;28;20059;-74
2024/02/26 10:21:58;;;;;;;23.00;14.90;;;487.20;1996.80;;;;;;5076241;28;20081;-75
2024/02/26 10:24:25;;;;;;;21.33;16.98;;;512.10;1996.80;;;;;;5082708;28;20035;-80
2024/02/26 10:26:52;;;;;;;23.35;13.80;;;512.20;1996.80;;;;;;5085581;28;20020;-79
2024/02/26 10:29:21;;;;;;;21.40;14.45;;;512.10;1996.80;;;;;;5088404;28;20028;-81
2024/02/26 10:31:47;;;;;;;25.33;18.00;;;512.10;2022.40;;;;;;5087335;28;20116;-80
2024/02/26 10:34:15;;;;;;;18.05;13.82;;;512.20;1996.80;;;;;;5088951;28;20051;-82
2024/02/26 10:36:42;;;;;;;25.95;14.43;;;512.50;1945.60;;;;;;5077276;28;20037;-80
2024/02/26 10:39:08;;;;;;;14.35;11.27;;;512.30;1996.80;;;;;;5089081;28;20102;-78
2024/02/26 10:41:34;;;;;;;25.80;15.95;;;512.60;1868.80;;;;;;5088743;28;20101;-83
2024/02/26 10:44:00;;;;;;;12.43;10.63;;;512.90;1817.60;;;;;;5086337;28;20020;-76
2024/02/26 10:46:26;;;;;;;16.90;10.45;;;537.60;1868.80;;;;;;5086410;28;20015;-76
2024/02/26 10:48:53;;;;;;;18.00;12.27;;;512.90;1868.80;;;;;;5072489;28;20364;-75
2024/02/26 10:51:29;;;;;;;22.55;14.68;;;512.40;1894.40;;;;;;5077029;28;20115;-81
2024/02/26 10:53:58;;;;;;;22.63;13.13;;;512.60;1868.80;;;;;;5083764;28;20038;-78
2024/02/26 10:56:29;;;;;;;14.25;9.90;;;512.90;1894.40;;;;;;5087619;28;20339;-78
2024/02/26 10:58:58;;;;;;;13.60;9.88;;;512.80;1868.80;;;;;;5075062;28;20028;-82
2024/02/26 11:01:26;;;;;;;13.80;9.02;;;512.90;1868.80;;;;;;5074345;28;20024;-76
2024/02/26 11:03:53;;;;;;;14.07;10.40;;;512.80;1868.80;;;;;;5076221;28;20411;-77
2024/02/26 11:06:21;;;;;;;14.23;7.43;;;512.90;1843.20;;;;;;5080429;28;20085;-79
2024/02/26 11:08:51;;;;;;;11.80;6.25;;;512.60;1817.60;;;;;;5084923;28;20390;-81
2024/02/26 11:11:20;;;;;;;24.88;13.80;;;512.50;1817.60;;;;;;5072336;28;20020;-78
2024/02/26 11:13:50;;;;;;;12.65;7.57;;;537.60;1843.20;;;;;;5087615;28;20077;-76
2024/02/26 11:16:21;;;;;;;9.38;6.22;;;512.40;1817.60;;;;;;5088977;28;20478;-77
2024/02/26 11:18:49;;;;;;;9.57;5.78;;;512.20;1817.60;;;;;;5082845;28;20016;-76
2024/02/26 11:21:19;;;;;;;11.80;8.90;;;512.30;1817.60;;;;;;5057657;28;20068;-75
2024/02/26 11:23:46;;;;;;;18.88;7.60;;;512.50;1792.00;;;;;;5060288;28;20012;-77
2024/02/26 11:26:15;;;;;;;8.50;6.68;;;512.50;1766.40;;;;;;5073266;28;20021;-75
2024/02/26 11:28:43;;;;;;;8.77;6.35;;;512.80;1740.80;;;;;;5072667;28;20078;-76
2024/02/26 11:31:10;;;;;;;11.40;6.68;;;512.40;1740.80;;;;;;5074589;28;20029;-79
2024/02/26 11:33:36;;;;;;;28.08;16.83;;;512.90;1766.40;;;;;;5070674;28;20067;-77
2024/02/26 11:36:12;;;;;;;9.98;6.75;;;537.90;1766.40;;;;;;5071552;28;20063;-77
2024/02/26 11:38:38;;;;;;;9.20;5.50;;;538.00;1715.20;;;;;;5080367;28;20047;-76
2024/02/26 11:41:08;;;;;;;12.02;8.40;;;538.00;1740.80;;;;;;5083392;28;20104;-77
2024/02/26 11:43:54;;;;;;;11.20;6.38;;;538.10;1766.40;;;;;;5091656;28;20385;-77
2024/02/26 11:46:33;;;;;;;7.03;5.60;;;538.10;1715.20;;;;;;5085133;28;20111;-74
2024/02/26 11:49:25;;;;;;;6.63;4.80;;;537.80;1715.20;;;;;;5080529;28;20031;-76
2024/02/26 11:51:52;;;;;;;7.88;4.22;;;537.70;1689.60;;;;;;5087568;28;20077;-75
2024/02/26 11:54:54;;;;;;;7.47;5.03;;;537.70;1715.20;;;;;;5077296;28;20107;-74
2024/02/26 11:57:29;;;;;;;9.07;5.05;;;537.70;1689.60;;;;;;5009144;28;20034;-76
2024/02/26 11:59:57;;;;;;;10.93;5.85;;;538.00;1689.60;;;;;;5009410;28;20076;-75
2024/02/26 12:02:45;;;;;;;10.38;5.22;;;538.40;1664.00;;;;;;5008976;28;20357;-77
2024/02/26 12:05:32;;;;;;;7.68;5.70;;;538.20;1689.60;;;;;;5009227;28;20042;-75
2024/02/26 12:08:06;;;;;;;10.93;6.35;;;538.50;1638.40;;;;;;5009035;28;20112;-76
2024/02/26 12:10:39;;;;;;;9.85;6.55;;;563.40;1689.60;;;;;;5008162;28;20025;-75
2024/02/26 12:13:08;;;;;;;9.43;6.53;;;563.60;1664.00;;;;;;4996350;28;20057;-80
2024/02/26 12:15:38;;;;;;;10.50;5.20;;;563.60;1638.40;;;;;;5007578;28;20104;-75
2024/02/26 12:18:06;;;;;;;12.98;8.05;;;563.60;1638.40;;;;;;5009007;28;20046;-74
2024/02/26 12:20:32;;;;;;;15.80;11.02;;;563.80;1664.00;;;;;;5008391;28;20022;-80
2024/02/26 12:22:59;;;;;;;14.98;8.20;;;;;;;;;;5009101;28;20125;-75